sensor_id;sensor_type;location;lat;lon;timestamp;temperature;humidity
14405;DHT22;14983;50.866;4.304;2022-09-17T00:00:50;10.30;99.90
14405;DHT22;14983;50.866;4.304;2022-09-17T00:03:18;10.40;99.90
14405;DHT22;14983;50.866;4.304;2022-09-17T00:05:46;10.30;99.90
14405;DHT22;14983;50.866;4.304;2022-09-17T00:08:14;10.40;99.90
14405;DHT22;14983;50.866;4.304;2022-09-17T00:10:43;10.40;99.90
14405;DHT22;14983;50.866;4.304;2022-09-17T00:13:11;10.50;99.90
14405;DHT22;14983;50.866;4.304;2022-09-17T00:15:39;10.50;99.90
14405;DHT22;14983;50.866;4.304;2022-09-17T00:18:06;10.40;99.90
14405;DHT22;14983;50.866;4.304;2022-09-17T00:20:37;10.30;99.90
14405;DHT22;14983;50.866;4.304;2022-09-17T00:23:04;10.20;99.90
14405;DHT22;14983;50.866;4.304;2022-09-17T00:25:32;10.20;99.90
14405;DHT22;14983;50.866;4.304;2022-09-17T00:28:01;10.10;99.90
14405;DHT22;14983;50.866;4.304;2022-09-17T00:30:28;10.10;99.90
14405;DHT22;14983;50.866;4.304;2022-09-17T00:32:55;10.00;99.90
14405;DHT22;14983;50.866;4.304;2022-09-17T00:35:23;10.00;99.90
14405;DHT22;14983;50.866;4.304;2022-09-17T00:37:50;10.00;99.90
14405;DHT22;14983;50.866;4.304;2022-09-17T00:40:18;10.00;99.90
14405;DHT22;14983;50.866;4.304;2022-09-17T00:42:45;9.90;99.90
14405;DHT22;14983;50.866;4.304;2022-09-17T00:45:14;10.00;99.90
14405;DHT22;14983;50.866;4.304;2022-09-17T00:47:45;10.00;99.90
14405;DHT22;14983;50.866;4.304;2022-09-17T00:50:15;10.10;99.90
14405;DHT22;14983;50.866;4.304;2022-09-17T00:52:48;10.00;99.90
14405;DHT22;14983;50.866;4.304;2022-09-17T00:55:19;10.20;99.90
14405;DHT22;14983;50.866;4.304;2022-09-17T00:57:50;10.10;99.90
14405;DHT22;14983;50.866;4.304;2022-09-17T01:00:20;10.10;99.90
14405;DHT22;14983;50.866;4.304;2022-09-17T01:02:48;10.10;99.90
14405;DHT22;14983;50.866;4.304;2022-09-17T01:05:15;10.00;99.90
14405;DHT22;14983;50.866;4.304;2022-09-17T01:08:00;10.10;99.90
14405;DHT22;14983;50.866;4.304;2022-09-17T01:10:40;10.20;99.90
14405;DHT22;14983;50.866;4.304;2022-09-17T01:13:19;10.20;99.90
14405;DHT22;14983;50.866;4.304;2022-09-17T01:15:57;10.10;99.90
14405;DHT22;14983;50.866;4.304;2022-09-17T01:18:39;10.30;99.90
14405;DHT22;14983;50.866;4.304;2022-09-17T01:21:32;10.20;99.90
14405;DHT22;14983;50.866;4.304;2022-09-17T01:24:36;10.20;99.90
14405;DHT22;14983;50.866;4.304;2022-09-17T01:27:33;10.20;99.90
14405;DHT22;14983;50.866;4.304;2022-09-17T01:30:16;10.30;99.90
14405;DHT22;14983;50.866;4.304;2022-09-17T01:32:51;10.80;99.90
14405;DHT22;14983;50.866;4.304;2022-09-17T01:35:25;10.30;99.90
14405;DHT22;14983;50.866;4.304;2022-09-17T01:37:58;10.20;99.90
14405;DHT22;14983;50.866;4.304;2022-09-17T01:40:31;10.30;99.90
14405;DHT22;14983;50.866;4.304;2022-09-17T01:43:06;9.10;99.90
14405;DHT22;14983;50.866;4.304;2022-09-17T01:45:38;10.40;99.90
14405;DHT22;14983;50.866;4.304;2022-09-17T01:48:09;10.30;99.90
14405;DHT22;14983;50.866;4.304;2022-09-17T01:50:43;10.30;99.90
14405;DHT22;14983;50.866;4.304;2022-09-17T01:53:12;10.30;99.90
14405;DHT22;14983;50.866;4.304;2022-09-17T01:55:41;10.40;99.90
14405;DHT22;14983;50.866;4.304;2022-09-17T01:58:12;10.30;99.90
14405;DHT22;14983;50.866;4.304;2022-09-17T02:00:45;10.40;99.90
14405;DHT22;14983;50.866;4.304;2022-09-17T02:03:18;10.40;99.90
14405;DHT22;14983;50.866;4.304;2022-09-17T02:05:51;10.40;99.90
14405;DHT22;14983;50.866;4.304;2022-09-17T02:08:22;10.50;99.90
14405;DHT22;14983;50.866;4.304;2022-09-17T02:10:54;10.50;99.90
14405;DHT22;14983;50.866;4.304;2022-09-17T02:13:26;10.50;99.90
14405;DHT22;14983;50.866;4.304;2022-09-17T02:15:56;10.50;99.90
14405;DHT22;14983;50.866;4.304;2022-09-17T02:18:31;11.00;99.90
14405;DHT22;14983;50.866;4.304;2022-09-17T02:21:05;10.50;99.90
14405;DHT22;14983;50.866;4.304;2022-09-17T02:23:40;10.50;99.90
14405;DHT22;14983;50.866;4.304;2022-09-17T02:26:11;11.40;99.90
14405;DHT22;14983;50.866;4.304;2022-09-17T02:28:41;10.50;99.90
14405;DHT22;14983;50.866;4.304;2022-09-17T02:31:09;10.50;99.90
14405;DHT22;14983;50.866;4.304;2022-09-17T02:33:40;10.60;99.90
14405;DHT22;14983;50.866;4.304;2022-09-17T02:36:09;10.70;99.90
14405;DHT22;14983;50.866;4.304;2022-09-17T02:38:37;10.60;99.90
14405;DHT22;14983;50.866;4.304;2022-09-17T02:41:13;10.60;99.90
14405;DHT22;14983;50.866;4.304;2022-09-17T02:43:50;10.50;99.90
14405;DHT22;14983;50.866;4.304;2022-09-17T02:46:36;10.50;99.90
14405;DHT22;14983;50.866;4.304;2022-09-17T02:49:18;10.50;99.90
14405;DHT22;14983;50.866;4.304;2022-09-17T02:51:55;10.50;99.90
14405;DHT22;14983;50.866;4.304;2022-09-17T02:54:27;10.50;99.90
14405;DHT22;14983;50.866;4.304;2022-09-17T02:57:01;11.10;99.90
14405;DHT22;14983;50.866;4.304;2022-09-17T02:59:38;10.40;99.90
14405;DHT22;14983;50.866;4.304;2022-09-17T03:02:13;11.00;99.90
14405;DHT22;14983;50.866;4.304;2022-09-17T03:04:44;10.30;99.90
14405;DHT22;14983;50.866;4.304;2022-09-17T03:07:13;10.20;99.90
14405;DHT22;14983;50.866;4.304;2022-09-17T03:09:40;10.10;99.90
14405;DHT22;14983;50.866;4.304;2022-09-17T03:12:08;10.10;99.90
14405;DHT22;14983;50.866;4.304;2022-09-17T03:14:35;10.10;99.90
14405;DHT22;14983;50.866;4.304;2022-09-17T03:17:03;10.00;99.90
14405;DHT22;14983;50.866;4.304;2022-09-17T03:19:29;10.00;99.90
14405;DHT22;14983;50.866;4.304;2022-09-17T03:21:58;9.90;99.90
14405;DHT22;14983;50.866;4.304;2022-09-17T03:24:25;9.90;99.90
14405;DHT22;14983;50.866;4.304;2022-09-17T03:26:52;9.90;99.90
14405;DHT22;14983;50.866;4.304;2022-09-17T03:29:19;10.90;99.90
14405;DHT22;14983;50.866;4.304;2022-09-17T03:31:47;10.10;99.90
14405;DHT22;14983;50.866;4.304;2022-09-17T03:34:14;9.80;99.90
14405;DHT22;14983;50.866;4.304;2022-09-17T03:36:42;9.80;99.90
14405;DHT22;14983;50.866;4.304;2022-09-17T03:39:11;9.90;99.90
14405;DHT22;14983;50.866;4.304;2022-09-17T03:41:38;9.70;99.90
14405;DHT22;14983;50.866;4.304;2022-09-17T03:44:06;10.00;99.90
14405;DHT22;14983;50.866;4.304;2022-09-17T03:46:35;9.70;99.90
14405;DHT22;14983;50.866;4.304;2022-09-17T03:49:01;9.70;99.90
14405;DHT22;14983;50.866;4.304;2022-09-17T03:51:28;9.70;99.90
14405;DHT22;14983;50.866;4.304;2022-09-17T03:53:56;9.60;99.90
14405;DHT22;14983;50.866;4.304;2022-09-17T03:56:24;9.60;99.90
14405;DHT22;14983;50.866;4.304;2022-09-17T03:58:52;9.60;99.90
14405;DHT22;14983;50.866;4.304;2022-09-17T04:01:22;9.60;99.90
14405;DHT22;14983;50.866;4.304;2022-09-17T04:03:49;9.60;99.90
14405;DHT22;14983;50.866;4.304;2022-09-17T04:06:16;9.60;99.90
14405;DHT22;14983;50.866;4.304;2022-09-17T04:08:43;9.60;99.90
14405;DHT22;14983;50.866;4.304;2022-09-17T04:11:10;9.60;99.90
14405;DHT22;14983;50.866;4.304;2022-09-17T04:13:38;9.70;99.90
14405;DHT22;14983;50.866;4.304;2022-09-17T04:16:06;9.60;99.90
14405;DHT22;14983;50.866;4.304;2022-09-17T04:18:33;9.60;99.90
14405;DHT22;14983;50.866;4.304;2022-09-17T04:21:00;9.90;99.90
14405;DHT22;14983;50.866;4.304;2022-09-17T04:23:27;9.60;99.90
14405;DHT22;14983;50.866;4.304;2022-09-17T04:25:55;9.50;99.90
14405;DHT22;14983;50.866;4.304;2022-09-17T04:28:22;9.60;99.90
14405;DHT22;14983;50.866;4.304;2022-09-17T04:30:50;9.60;99.90
14405;DHT22;14983;50.866;4.304;2022-09-17T04:33:17;9.60;99.90
14405;DHT22;14983;50.866;4.304;2022-09-17T04:35:44;9.50;99.90
14405;DHT22;14983;50.866;4.304;2022-09-17T04:38:12;9.50;99.90
14405;DHT22;14983;50.866;4.304;2022-09-17T04:40:43;9.70;99.90
14405;DHT22;14983;50.866;4.304;2022-09-17T04:43:12;9.70;99.90
14405;DHT22;14983;50.866;4.304;2022-09-17T04:45:40;9.70;99.90
14405;DHT22;14983;50.866;4.304;2022-09-17T04:48:08;9.70;99.90
14405;DHT22;14983;50.866;4.304;2022-09-17T04:50:35;9.80;99.90
14405;DHT22;14983;50.866;4.304;2022-09-17T04:53:02;9.80;99.90
14405;DHT22;14983;50.866;4.304;2022-09-17T04:55:29;9.80;99.90
14405;DHT22;14983;50.866;4.304;2022-09-17T04:57:57;9.90;99.90
14405;DHT22;14983;50.866;4.304;2022-09-17T05:00:24;10.00;99.90
14405;DHT22;14983;50.866;4.304;2022-09-17T05:02:53;9.90;99.90
14405;DHT22;14983;50.866;4.304;2022-09-17T05:05:22;9.90;99.90
14405;DHT22;14983;50.866;4.304;2022-09-17T05:07:50;9.90;99.90
14405;DHT22;14983;50.866;4.304;2022-09-17T05:10:18;9.90;99.90
14405;DHT22;14983;50.866;4.304;2022-09-17T05:12:49;9.80;99.90
14405;DHT22;14983;50.866;4.304;2022-09-17T05:15:17;9.80;99.90
14405;DHT22;14983;50.866;4.304;2022-09-17T05:17:44;9.70;99.90
14405;DHT22;14983;50.866;4.304;2022-09-17T05:20:11;9.70;99.90
14405;DHT22;14983;50.866;4.304;2022-09-17T05:22:44;9.80;99.90
14405;DHT22;14983;50.866;4.304;2022-09-17T05:25:12;9.80;99.90
14405;DHT22;14983;50.866;4.304;2022-09-17T05:27:39;9.90;99.90
14405;DHT22;14983;50.866;4.304;2022-09-17T05:30:08;9.80;99.90
14405;DHT22;14983;50.866;4.304;2022-09-17T05:32:36;9.80;99.90
14405;DHT22;14983;50.866;4.304;2022-09-17T05:35:04;9.80;99.90
14405;DHT22;14983;50.866;4.304;2022-09-17T05:37:31;9.80;99.90
14405;DHT22;14983;50.866;4.304;2022-09-17T05:40:00;10.00;99.90
14405;DHT22;14983;50.866;4.304;2022-09-17T05:42:29;9.80;99.90
14405;DHT22;14983;50.866;4.304;2022-09-17T05:44:59;10.00;99.90
14405;DHT22;14983;50.866;4.304;2022-09-17T05:47:27;10.00;99.90
14405;DHT22;14983;50.866;4.304;2022-09-17T05:49:54;10.10;99.90
14405;DHT22;14983;50.866;4.304;2022-09-17T05:52:26;10.10;99.90
14405;DHT22;14983;50.866;4.304;2022-09-17T05:54:56;10.10;99.90
14405;DHT22;14983;50.866;4.304;2022-09-17T05:57:29;10.10;99.90
14405;DHT22;14983;50.866;4.304;2022-09-17T05:59:59;10.10;99.90
14405;DHT22;14983;50.866;4.304;2022-09-17T06:02:28;10.40;99.90
14405;DHT22;14983;50.866;4.304;2022-09-17T06:04:55;10.20;99.90
14405;DHT22;14983;50.866;4.304;2022-09-17T06:07:28;10.30;99.90
14405;DHT22;14983;50.866;4.304;2022-09-17T06:10:01;10.30;99.90
14405;DHT22;14983;50.866;4.304;2022-09-17T06:12:48;10.30;99.90
14405;DHT22;14983;50.866;4.304;2022-09-17T06:15:51;10.40;99.90
14405;DHT22;14983;50.866;4.304;2022-09-17T06:18:26;10.40;99.90
14405;DHT22;14983;50.866;4.304;2022-09-17T06:20:59;10.40;99.90
14405;DHT22;14983;50.866;4.304;2022-09-17T06:23:27;10.60;99.90
14405;DHT22;14983;50.866;4.304;2022-09-17T06:26:00;10.20;99.90
14405;DHT22;14983;50.866;4.304;2022-09-17T06:28:32;10.20;99.90
14405;DHT22;14983;50.866;4.304;2022-09-17T06:31:07;10.10;99.90
14405;DHT22;14983;50.866;4.304;2022-09-17T06:33:35;10.10;99.90
14405;DHT22;14983;50.866;4.304;2022-09-17T06:36:38;10.10;99.90
14405;DHT22;14983;50.866;4.304;2022-09-17T06:39:07;10.10;99.90
14405;DHT22;14983;50.866;4.304;2022-09-17T06:41:34;10.30;99.90
14405;DHT22;14983;50.866;4.304;2022-09-17T06:44:03;10.80;99.90
14405;DHT22;14983;50.866;4.304;2022-09-17T06:46:33;11.30;99.90
14405;DHT22;14983;50.866;4.304;2022-09-17T06:49:01;10.30;99.90
14405;DHT22;14983;50.866;4.304;2022-09-17T06:51:37;10.30;99.90
14405;DHT22;14983;50.866;4.304;2022-09-17T06:54:10;10.30;99.90
14405;DHT22;14983;50.866;4.304;2022-09-17T06:56:38;10.30;99.90
14405;DHT22;14983;50.866;4.304;2022-09-17T06:59:10;10.30;99.90
14405;DHT22;14983;50.866;4.304;2022-09-17T07:01:38;10.40;99.90
14405;DHT22;14983;50.866;4.304;2022-09-17T07:04:05;10.50;99.90
14405;DHT22;14983;50.866;4.304;2022-09-17T07:06:32;10.60;99.90
14405;DHT22;14983;50.866;4.304;2022-09-17T07:08:59;10.70;99.90
14405;DHT22;14983;50.866;4.304;2022-09-17T07:11:28;10.70;99.90
14405;DHT22;14983;50.866;4.304;2022-09-17T07:13:55;10.70;99.90
14405;DHT22;14983;50.866;4.304;2022-09-17T07:16:23;11.00;99.90
14405;DHT22;14983;50.866;4.304;2022-09-17T07:18:51;10.80;99.90
14405;DHT22;14983;50.866;4.304;2022-09-17T07:21:18;10.90;99.90
14405;DHT22;14983;50.866;4.304;2022-09-17T07:23:46;10.90;99.90
14405;DHT22;14983;50.866;4.304;2022-09-17T07:26:14;10.90;99.90
14405;DHT22;14983;50.866;4.304;2022-09-17T07:28:41;10.80;99.90
14405;DHT22;14983;50.866;4.304;2022-09-17T07:31:09;10.90;99.90
14405;DHT22;14983;50.866;4.304;2022-09-17T07:33:39;11.00;99.90
14405;DHT22;14983;50.866;4.304;2022-09-17T07:36:10;11.30;99.90
14405;DHT22;14983;50.866;4.304;2022-09-17T07:38:37;10.90;99.90
14405;DHT22;14983;50.866;4.304;2022-09-17T07:41:06;10.90;99.90
14405;DHT22;14983;50.866;4.304;2022-09-17T07:43:34;10.90;99.90
14405;DHT22;14983;50.866;4.304;2022-09-17T07:46:03;11.00;99.90
14405;DHT22;14983;50.866;4.304;2022-09-17T07:48:31;11.00;99.90
14405;DHT22;14983;50.866;4.304;2022-09-17T07:50:59;11.10;99.90
14405;DHT22;14983;50.866;4.304;2022-09-17T07:53:26;11.20;99.90
14405;DHT22;14983;50.866;4.304;2022-09-17T07:55:55;11.20;99.90
14405;DHT22;14983;50.866;4.304;2022-09-17T07:58:23;11.20;99.90
14405;DHT22;14983;50.866;4.304;2022-09-17T08:00:59;11.20;99.90
14405;DHT22;14983;50.866;4.304;2022-09-17T08:03:26;11.50;99.90
14405;DHT22;14983;50.866;4.304;2022-09-17T08:05:53;11.60;99.90
14405;DHT22;14983;50.866;4.304;2022-09-17T08:08:30;11.80;99.90
14405;DHT22;14983;50.866;4.304;2022-09-17T08:11:01;11.90;99.90
14405;DHT22;14983;50.866;4.304;2022-09-17T08:13:31;11.80;99.90
14405;DHT22;14983;50.866;4.304;2022-09-17T08:15:58;11.90;99.90
14405;DHT22;14983;50.866;4.304;2022-09-17T08:18:26;11.90;99.90
14405;DHT22;14983;50.866;4.304;2022-09-17T08:20:56;11.80;99.90
14405;DHT22;14983;50.866;4.304;2022-09-17T08:23:24;12.10;99.90
14405;DHT22;14983;50.866;4.304;2022-09-17T08:25:54;12.40;99.90
14405;DHT22;14983;50.866;4.304;2022-09-17T08:28:22;12.50;99.90
14405;DHT22;14983;50.866;4.304;2022-09-17T08:30:50;12.60;99.90
14405;DHT22;14983;50.866;4.304;2022-09-17T08:33:19;12.80;99.90
14405;DHT22;14983;50.866;4.304;2022-09-17T08:35:50;12.90;99.90
14405;DHT22;14983;50.866;4.304;2022-09-17T08:38:18;12.90;99.90
14405;DHT22;14983;50.866;4.304;2022-09-17T08:40:55;13.00;99.90
14405;DHT22;14983;50.866;4.304;2022-09-17T08:43:26;13.20;99.90
14405;DHT22;14983;50.866;4.304;2022-09-17T08:45:54;13.60;99.90
14405;DHT22;14983;50.866;4.304;2022-09-17T08:48:24;13.20;99.90
14405;DHT22;14983;50.866;4.304;2022-09-17T08:50:54;12.60;99.90
14405;DHT22;14983;50.866;4.304;2022-09-17T08:53:29;12.70;99.90
14405;DHT22;14983;50.866;4.304;2022-09-17T08:56:05;12.50;99.90
14405;DHT22;14983;50.866;4.304;2022-09-17T08:59:06;12.60;99.90
14405;DHT22;14983;50.866;4.304;2022-09-17T09:01:41;12.70;99.90
14405;DHT22;14983;50.866;4.304;2022-09-17T09:07:18;12.60;99.90
14405;DHT22;14983;50.866;4.304;2022-09-17T09:09:52;12.70;99.90
14405;DHT22;14983;50.866;4.304;2022-09-17T09:12:25;12.80;99.90
14405;DHT22;14983;50.866;4.304;2022-09-17T09:14:57;12.80;99.90
14405;DHT22;14983;50.866;4.304;2022-09-17T09:17:27;12.60;99.90
14405;DHT22;14983;50.866;4.304;2022-09-17T09:19:55;12.20;99.90
14405;DHT22;14983;50.866;4.304;2022-09-17T09:22:31;12.10;99.90
14405;DHT22;14983;50.866;4.304;2022-09-17T09:25:09;12.10;99.90
14405;DHT22;14983;50.866;4.304;2022-09-17T09:27:44;12.00;99.90
14405;DHT22;14983;50.866;4.304;2022-09-17T09:30:15;12.00;99.90
14405;DHT22;14983;50.866;4.304;2022-09-17T09:32:55;12.00;99.90
14405;DHT22;14983;50.866;4.304;2022-09-17T09:35:26;11.90;99.90
14405;DHT22;14983;50.866;4.304;2022-09-17T09:37:58;11.90;99.90
14405;DHT22;14983;50.866;4.304;2022-09-17T09:40:36;11.90;99.90
14405;DHT22;14983;50.866;4.304;2022-09-17T09:43:13;11.90;99.90
14405;DHT22;14983;50.866;4.304;2022-09-17T09:46:05;11.90;99.90
14405;DHT22;14983;50.866;4.304;2022-09-17T09:48:39;12.10;99.90
14405;DHT22;14983;50.866;4.304;2022-09-17T09:51:18;12.20;99.90
14405;DHT22;14983;50.866;4.304;2022-09-17T09:54:05;12.40;99.90
14405;DHT22;14983;50.866;4.304;2022-09-17T09:56:46;12.80;99.90
14405;DHT22;14983;50.866;4.304;2022-09-17T09:59:19;12.80;99.90
14405;DHT22;14983;50.866;4.304;2022-09-17T10:01:47;13.00;99.90
14405;DHT22;14983;50.866;4.304;2022-09-17T10:04:17;13.90;99.90
14405;DHT22;14983;50.866;4.304;2022-09-17T10:06:46;13.30;99.90
14405;DHT22;14983;50.866;4.304;2022-09-17T10:09:15;13.60;99.90
14405;DHT22;14983;50.866;4.304;2022-09-17T10:11:42;13.60;99.90
14405;DHT22;14983;50.866;4.304;2022-09-17T10:14:28;13.60;99.90
14405;DHT22;14983;50.866;4.304;2022-09-17T10:17:15;13.50;99.90
14405;DHT22;14983;50.866;4.304;2022-09-17T10:19:43;13.70;99.90
14405;DHT22;14983;50.866;4.304;2022-09-17T10:22:19;13.40;99.90
14405;DHT22;14983;50.866;4.304;2022-09-17T10:24:50;13.40;99.90
14405;DHT22;14983;50.866;4.304;2022-09-17T10:27:19;13.30;99.90
14405;DHT22;14983;50.866;4.304;2022-09-17T10:29:54;13.30;99.90
14405;DHT22;14983;50.866;4.304;2022-09-17T10:32:24;13.30;99.90
14405;DHT22;14983;50.866;4.304;2022-09-17T10:34:58;13.10;99.90
14405;DHT22;14983;50.866;4.304;2022-09-17T10:37:41;13.30;99.90
14405;DHT22;14983;50.866;4.304;2022-09-17T10:40:26;13.20;99.90
14405;DHT22;14983;50.866;4.304;2022-09-17T10:43:20;13.20;99.90
14405;DHT22;14983;50.866;4.304;2022-09-17T10:45:57;13.30;99.90
14405;DHT22;14983;50.866;4.304;2022-09-17T10:48:28;13.40;99.90
14405;DHT22;14983;50.866;4.304;2022-09-17T10:50:56;13.50;99.90
14405;DHT22;14983;50.866;4.304;2022-09-17T10:53:24;13.30;99.90
14405;DHT22;14983;50.866;4.304;2022-09-17T10:55:57;13.20;99.90
14405;DHT22;14983;50.866;4.304;2022-09-17T10:58:37;13.10;99.90
14405;DHT22;14983;50.866;4.304;2022-09-17T11:01:18;13.70;99.90
14405;DHT22;14983;50.866;4.304;2022-09-17T11:04:06;13.20;99.90
14405;DHT22;14983;50.866;4.304;2022-09-17T11:09:51;13.60;99.90
14405;DHT22;14983;50.866;4.304;2022-09-17T11:12:30;13.80;99.90
14405;DHT22;14983;50.866;4.304;2022-09-17T11:15:09;13.80;99.90
14405;DHT22;14983;50.866;4.304;2022-09-17T11:17:58;14.10;99.90
14405;DHT22;14983;50.866;4.304;2022-09-17T11:20:39;13.90;99.90
14405;DHT22;14983;50.866;4.304;2022-09-17T11:23:24;14.00;99.90
14405;DHT22;14983;50.866;4.304;2022-09-17T11:25:55;13.80;99.90
14405;DHT22;14983;50.866;4.304;2022-09-17T11:28:43;13.50;99.90
14405;DHT22;14983;50.866;4.304;2022-09-17T11:31:23;14.00;99.90
14405;DHT22;14983;50.866;4.304;2022-09-17T11:34:21;13.30;99.90
14405;DHT22;14983;50.866;4.304;2022-09-17T11:36:55;13.40;99.90
14405;DHT22;14983;50.866;4.304;2022-09-17T11:39:26;13.50;99.90
14405;DHT22;14983;50.866;4.304;2022-09-17T11:42:01;13.40;99.90
14405;DHT22;14983;50.866;4.304;2022-09-17T11:44:31;13.30;99.90
14405;DHT22;14983;50.866;4.304;2022-09-17T11:47:12;13.20;99.90
14405;DHT22;14983;50.866;4.304;2022-09-17T11:49:45;13.40;99.90
14405;DHT22;14983;50.866;4.304;2022-09-17T11:52:18;13.40;99.90
14405;DHT22;14983;50.866;4.304;2022-09-17T11:54:49;13.40;99.90
14405;DHT22;14983;50.866;4.304;2022-09-17T11:57:20;13.50;99.90
14405;DHT22;14983;50.866;4.304;2022-09-17T11:59:52;13.60;99.90
14405;DHT22;14983;50.866;4.304;2022-09-17T12:02:24;14.00;99.90
14405;DHT22;14983;50.866;4.304;2022-09-17T12:04:57;13.70;99.90
14405;DHT22;14983;50.866;4.304;2022-09-17T12:07:38;15.40;99.90
14405;DHT22;14983;50.866;4.304;2022-09-17T12:10:28;15.70;99.90
14405;DHT22;14983;50.866;4.304;2022-09-17T12:13:02;15.40;99.90
14405;DHT22;14983;50.866;4.304;2022-09-17T12:15:34;15.00;99.90
14405;DHT22;14983;50.866;4.304;2022-09-17T12:18:10;15.50;99.90
14405;DHT22;14983;50.866;4.304;2022-09-17T12:20:45;15.60;99.90
14405;DHT22;14983;50.866;4.304;2022-09-17T12:23:16;16.80;99.90
14405;DHT22;14983;50.866;4.304;2022-09-17T12:25:51;17.80;99.90
14405;DHT22;14983;50.866;4.304;2022-09-17T12:28:26;18.10;99.90
14405;DHT22;14983;50.866;4.304;2022-09-17T12:31:01;17.60;93.30
14405;DHT22;14983;50.866;4.304;2022-09-17T12:33:32;16.30;1.00
14405;DHT22;14983;50.866;4.304;2022-09-17T12:36:21;15.80;1.00
14405;DHT22;14983;50.866;4.304;2022-09-17T12:41:58;14.30;99.90
14405;DHT22;14983;50.866;4.304;2022-09-17T12:44:42;14.30;99.90
14405;DHT22;14983;50.866;4.304;2022-09-17T12:50:19;14.20;99.90
14405;DHT22;14983;50.866;4.304;2022-09-17T12:56:00;14.10;99.90
14405;DHT22;14983;50.866;4.304;2022-09-17T12:58:42;13.60;99.90
14405;DHT22;14983;50.866;4.304;2022-09-17T13:01:18;12.60;99.90
14405;DHT22;14983;50.866;4.304;2022-09-17T13:03:49;12.60;99.90
14405;DHT22;14983;50.866;4.304;2022-09-17T13:09:57;12.00;1.00
14405;DHT22;14983;50.866;4.304;2022-09-17T13:12:30;11.80;99.90
14405;DHT22;14983;50.866;4.304;2022-09-17T13:15:33;11.80;99.90
14405;DHT22;14983;50.866;4.304;2022-09-17T13:18:11;11.90;99.90
14405;DHT22;14983;50.866;4.304;2022-09-17T13:20:48;12.10;99.90
14405;DHT22;14983;50.866;4.304;2022-09-17T13:23:30;12.80;99.90
14405;DHT22;14983;50.866;4.304;2022-09-17T13:26:00;13.60;99.90
14405;DHT22;14983;50.866;4.304;2022-09-17T13:28:37;13.80;99.90
14405;DHT22;14983;50.866;4.304;2022-09-17T13:31:04;13.70;99.90
14405;DHT22;14983;50.866;4.304;2022-09-17T13:33:54;13.60;99.90
14405;DHT22;14983;50.866;4.304;2022-09-17T13:36:46;13.60;99.90
14405;DHT22;14983;50.866;4.304;2022-09-17T13:39:38;15.10;99.90
14405;DHT22;14983;50.866;4.304;2022-09-17T13:42:11;17.30;99.90
14405;DHT22;14983;50.866;4.304;2022-09-17T13:44:41;18.20;1.00
14405;DHT22;14983;50.866;4.304;2022-09-17T13:49:59;18.80;99.90
14405;DHT22;14983;50.866;4.304;2022-09-17T13:52:34;19.10;99.90
14405;DHT22;14983;50.866;4.304;2022-09-17T13:55:02;19.20;99.90
14405;DHT22;14983;50.866;4.304;2022-09-17T13:57:32;19.20;1.00
14405;DHT22;14983;50.866;4.304;2022-09-17T14:00:02;19.10;1.00
14405;DHT22;14983;50.866;4.304;2022-09-17T14:02:34;19.10;1.00
14405;DHT22;14983;50.866;4.304;2022-09-17T14:05:31;19.60;4.30
14405;DHT22;14983;50.866;4.304;2022-09-17T14:08:11;19.90;1.00
14405;DHT22;14983;50.866;4.304;2022-09-17T14:10:42;19.90;1.00
14405;DHT22;14983;50.866;4.304;2022-09-17T14:13:41;18.70;1.00
14405;DHT22;14983;50.866;4.304;2022-09-17T14:16:46;18.20;1.00
14405;DHT22;14983;50.866;4.304;2022-09-17T14:19:27;17.00;99.90
14405;DHT22;14983;50.866;4.304;2022-09-17T14:21:57;16.00;1.00
14405;DHT22;14983;50.866;4.304;2022-09-17T14:24:34;15.50;99.90
14405;DHT22;14983;50.866;4.304;2022-09-17T14:27:24;15.10;1.00
14405;DHT22;14983;50.866;4.304;2022-09-17T14:30:16;14.70;1.00
14405;DHT22;14983;50.866;4.304;2022-09-17T14:32:53;13.70;99.90
14405;DHT22;14983;50.866;4.304;2022-09-17T14:35:30;12.70;99.90
14405;DHT22;14983;50.866;4.304;2022-09-17T14:38:02;12.30;99.90
14405;DHT22;14983;50.866;4.304;2022-09-17T14:40:33;12.30;99.90
14405;DHT22;14983;50.866;4.304;2022-09-17T14:43:02;12.00;99.90
14405;DHT22;14983;50.866;4.304;2022-09-17T14:45:32;12.00;99.90
14405;DHT22;14983;50.866;4.304;2022-09-17T14:48:25;12.00;99.90
14405;DHT22;14983;50.866;4.304;2022-09-17T14:51:15;12.00;99.90
14405;DHT22;14983;50.866;4.304;2022-09-17T14:53:49;12.00;99.90
14405;DHT22;14983;50.866;4.304;2022-09-17T14:56:39;12.30;99.90
14405;DHT22;14983;50.866;4.304;2022-09-17T14:59:18;12.80;99.90
14405;DHT22;14983;50.866;4.304;2022-09-17T15:01:48;13.20;99.90
14405;DHT22;14983;50.866;4.304;2022-09-17T15:04:23;13.50;99.90
14405;DHT22;14983;50.866;4.304;2022-09-17T15:06:50;13.60;99.90
14405;DHT22;14983;50.866;4.304;2022-09-17T15:09:22;14.00;99.90
14405;DHT22;14983;50.866;4.304;2022-09-17T15:11:51;13.40;99.90
14405;DHT22;14983;50.866;4.304;2022-09-17T15:14:21;13.40;99.90
14405;DHT22;14983;50.866;4.304;2022-09-17T15:16:52;13.50;99.90
14405;DHT22;14983;50.866;4.304;2022-09-17T15:19:23;13.40;99.90
14405;DHT22;14983;50.866;4.304;2022-09-17T15:21:54;13.30;99.90
14405;DHT22;14983;50.866;4.304;2022-09-17T15:24:33;13.40;99.90
14405;DHT22;14983;50.866;4.304;2022-09-17T15:27:07;13.40;99.90
14405;DHT22;14983;50.866;4.304;2022-09-17T15:29:38;13.30;99.90
14405;DHT22;14983;50.866;4.304;2022-09-17T15:32:11;13.40;99.90
14405;DHT22;14983;50.866;4.304;2022-09-17T15:34:40;13.20;99.90
14405;DHT22;14983;50.866;4.304;2022-09-17T15:37:17;13.20;99.90
14405;DHT22;14983;50.866;4.304;2022-09-17T15:39:47;13.20;99.90
14405;DHT22;14983;50.866;4.304;2022-09-17T15:42:21;13.10;99.90
14405;DHT22;14983;50.866;4.304;2022-09-17T15:44:49;13.10;99.90
14405;DHT22;14983;50.866;4.304;2022-09-17T15:47:51;13.00;99.90
14405;DHT22;14983;50.866;4.304;2022-09-17T15:50:22;13.00;99.90
14405;DHT22;14983;50.866;4.304;2022-09-17T15:52:56;12.90;99.90
14405;DHT22;14983;50.866;4.304;2022-09-17T15:55:32;13.00;99.90
14405;DHT22;14983;50.866;4.304;2022-09-17T15:58:02;13.10;99.90
14405;DHT22;14983;50.866;4.304;2022-09-17T16:00:30;13.00;99.90
14405;DHT22;14983;50.866;4.304;2022-09-17T16:06:36;13.00;99.90
14405;DHT22;14983;50.866;4.304;2022-09-17T16:12:19;12.00;99.90
14405;DHT22;14983;50.866;4.304;2022-09-17T16:14:48;13.10;99.90
14405;DHT22;14983;50.866;4.304;2022-09-17T16:17:30;13.10;99.90
14405;DHT22;14983;50.866;4.304;2022-09-17T16:20:18;13.30;99.90
14405;DHT22;14983;50.866;4.304;2022-09-17T16:22:46;13.30;99.90
14405;DHT22;14983;50.866;4.304;2022-09-17T16:25:14;13.40;99.90
14405;DHT22;14983;50.866;4.304;2022-09-17T16:27:48;13.20;99.90
14405;DHT22;14983;50.866;4.304;2022-09-17T16:30:19;13.10;99.90
14405;DHT22;14983;50.866;4.304;2022-09-17T16:32:48;13.10;99.90
14405;DHT22;14983;50.866;4.304;2022-09-17T16:35:18;13.30;99.90
14405;DHT22;14983;50.866;4.304;2022-09-17T16:37:47;12.90;99.90